Time;durP1;ratioP1;P1;durP2;ratioP2;P2;SDS_P1;SDS_P2;PMS_P1;PMS_P2;Temp;Humidity;BMP_temperature;BMP_pressure;BME280_temperature;BME280_humidity;BME280_pressure;Samples;Min_cycle;Max_cycle;Signal;HPM_P1;HPM_P2
2023/09/20 00:17:09;;;;;;;2.28;0.43;;;16.30;99.90;;;;;;5090547;28;20536;-63
2023/09/20 00:19:40;;;;;;;3.13;0.65;;;16.30;99.90;;;;;;5121630;27;20621;-63
2023/09/20 00:22:10;;;;;;;1.63;0.55;;;16.30;99.90;;;;;;5119321;27;20040;-63
2023/09/20 00:24:38;;;;;;;1.20;0.60;;;16.30;99.90;;;;;;5108459;28;20047;-63
2023/09/20 00:27:08;;;;;;;3.50;0.73;;;16.40;99.90;;;;;;5109147;28;20430;-63
2023/09/20 00:29:37;;;;;;;2.55;0.30;;;16.40;99.90;;;;;;5123391;27;20047;-59
2023/09/20 00:32:07;;;;;;;0.52;0.38;;;16.40;99.90;;;;;;5128607;27;20062;-63
2023/09/20 00:34:35;;;;;;;3.22;0.47;;;16.40;99.90;;;;;;5109833;27;20052;-64
2023/09/20 00:37:03;;;;;;;2.38;0.40;;;16.40;99.90;;;;;;5113521;27;20048;-60
2023/09/20 00:39:30;;;;;;;1.38;0.43;;;16.50;99.90;;;;;;5104591;27;20419;-60
2023/09/20 00:42:01;;;;;;;2.78;0.40;;;16.50;99.90;;;;;;5106635;28;20055;-59
2023/09/20 00:44:28;;;;;;;0.20;0.20;;;16.50;99.90;;;;;;5103075;28;20047;-63
2023/09/20 00:46:56;;;;;;;0.60;0.25;;;16.50;99.90;;;;;;5107498;28;20047;-63
2023/09/20 00:49:29;;;;;;;1.48;0.30;;;16.50;99.90;;;;;;5121934;27;20051;-63
2023/09/20 00:51:57;;;;;;;1.20;0.30;;;16.50;99.90;;;;;;5125637;27;20043;-63
2023/09/20 00:54:27;;;;;;;0.90;0.30;;;16.50;99.90;;;;;;5108810;27;20051;-63
2023/09/20 00:56:57;;;;;;;1.10;0.32;;;16.50;99.90;;;;;;5107421;28;20410;-63
2023/09/20 00:59:25;;;;;;;0.57;0.20;;;16.50;99.90;;;;;;5121435;27;20047;-64
2023/09/20 01:01:53;;;;;;;2.67;0.30;;;16.50;99.90;;;;;;5126493;27;20102;-62
2023/09/20 01:04:21;;;;;;;1.27;0.20;;;16.50;99.90;;;;;;5108704;27;20055;-63
2023/09/20 01:06:50;;;;;;;1.10;0.20;;;16.50;99.90;;;;;;5114212;27;20043;-63
2023/09/20 01:09:18;;;;;;;2.30;0.30;;;16.50;99.90;;;;;;5113814;27;20047;-63
2023/09/20 01:11:46;;;;;;;2.15;0.38;;;16.50;99.90;;;;;;5129160;27;20396;-62
2023/09/20 01:14:14;;;;;;;1.17;0.32;;;16.50;99.90;;;;;;5113304;27;20051;-63
2023/09/20 01:16:42;;;;;;;0.57;0.10;;;16.50;99.90;;;;;;5108350;28;20048;-63
2023/09/20 01:19:10;;;;;;;1.10;0.20;;;16.50;99.90;;;;;;5120210;28;20054;-63
2023/09/20 01:21:41;;;;;;;0.40;0.13;;;16.60;99.90;;;;;;5127606;28;20035;-64
2023/09/20 01:24:10;;;;;;;0.52;0.10;;;16.70;99.90;;;;;;5106695;28;20506;-64
2023/09/20 01:26:41;;;;;;;0.52;0.10;;;16.70;99.90;;;;;;5107107;28;20051;-63
2023/09/20 01:29:09;;;;;;;0.70;0.20;;;16.70;99.90;;;;;;5108193;28;20074;-63
2023/09/20 01:31:37;;;;;;;0.63;0.00;;;16.80;99.90;;;;;;5097065;28;20063;-63
2023/09/20 01:34:05;;;;;;;1.92;0.43;;;16.80;99.90;;;;;;5090906;28;20052;-62
2023/09/20 01:36:32;;;;;;;0.00;0.00;;;16.80;99.90;;;;;;5112248;28;20043;-62
2023/09/20 01:39:04;;;;;;;2.28;0.38;;;16.90;99.90;;;;;;5120729;28;20518;-62
2023/09/20 01:41:31;;;;;;;0.25;0.00;;;16.90;99.90;;;;;;5111288;28;20048;-63
2023/09/20 01:43:59;;;;;;;0.13;0.10;;;16.90;99.90;;;;;;5110114;28;20043;-63
2023/09/20 01:46:33;;;;;;;0.10;0.10;;;16.90;99.90;;;;;;5098276;28;20288;-64
2023/09/20 01:49:01;;;;;;;1.55;0.20;;;16.90;99.90;;;;;;5089853;28;20300;-62
2023/09/20 01:51:29;;;;;;;1.00;0.20;;;16.90;99.90;;;;;;5090708;28;20068;-63
2023/09/20 01:53:57;;;;;;;0.45;0.10;;;16.90;99.90;;;;;;5100446;28;20109;-62
2023/09/20 01:56:25;;;;;;;1.48;0.20;;;16.90;99.90;;;;;;5111441;28;20036;-63
2023/09/20 01:58:53;;;;;;;1.10;0.10;;;16.90;99.90;;;;;;5109399;28;20485;-62
2023/09/20 02:01:22;;;;;;;0.60;0.13;;;16.90;99.90;;;;;;5109950;28;20047;-62
2023/09/20 02:03:50;;;;;;;0.10;0.00;;;16.90;99.90;;;;;;5093562;28;20083;-63
2023/09/20 02:06:19;;;;;;;1.65;0.30;;;16.80;99.90;;;;;;5104608;28;20055;-63
2023/09/20 02:08:48;;;;;;;1.55;0.22;;;16.80;99.90;;;;;;5134553;27;20049;-61
2023/09/20 02:11:16;;;;;;;0.90;0.20;;;16.80;99.90;;;;;;5134565;27;20054;-61
2023/09/20 02:13:43;;;;;;;0.82;0.10;;;16.80;99.90;;;;;;5134074;27;20042;-62
2023/09/20 02:16:11;;;;;;;1.40;0.22;;;16.80;99.90;;;;;;5123096;27;20055;-62
2023/09/20 02:18:39;;;;;;;0.32;0.30;;;16.70;99.90;;;;;;5115202;28;20529;-62
2023/09/20 02:21:08;;;;;;;0.20;0.20;;;16.70;99.90;;;;;;5114841;28;20063;-62
2023/09/20 02:23:36;;;;;;;2.35;0.20;;;16.70;99.90;;;;;;5114981;28;20047;-62
2023/09/20 02:26:03;;;;;;;3.92;0.30;;;16.70;99.90;;;;;;5113537;28;20048;-62
2023/09/20 02:28:34;;;;;;;0.25;0.08;;;16.70;99.90;;;;;;5113293;28;20052;-59
2023/09/20 02:31:02;;;;;;;1.45;0.10;;;16.70;99.90;;;;;;5114838;28;20035;-62
2023/09/20 02:33:30;;;;;;;2.78;0.30;;;16.70;99.90;;;;;;5113410;28;20482;-62
2023/09/20 02:35:58;;;;;;;2.50;0.30;;;16.70;99.90;;;;;;5113234;28;20046;-63
2023/09/20 02:38:27;;;;;;;2.20;0.20;;;16.70;99.90;;;;;;5123524;27;20399;-63
2023/09/20 02:40:56;;;;;;;0.50;0.15;;;16.70;99.90;;;;;;5113352;28;20408;-62
2023/09/20 02:43:26;;;;;;;0.10;0.10;;;16.70;99.90;;;;;;5113385;28;20055;-60
2023/09/20 02:45:54;;;;;;;0.00;0.00;;;16.70;99.90;;;;;;5111591;28;20546;-63
2023/09/20 02:48:22;;;;;;;0.50;0.20;;;16.70;99.90;;;;;;5113090;28;20051;-62
2023/09/20 02:50:50;;;;;;;0.70;0.30;;;16.70;99.90;;;;;;5109460;28;20475;-60
2023/09/20 02:53:21;;;;;;;0.60;0.20;;;16.80;99.90;;;;;;5112800;28;20463;-63
2023/09/20 02:55:48;;;;;;;0.68;0.22;;;16.80;99.90;;;;;;5112989;28;20055;-62
2023/09/20 02:58:17;;;;;;;1.60;0.20;;;16.80;99.90;;;;;;5113136;28;20040;-63
2023/09/20 03:00:50;;;;;;;0.40;0.20;;;16.90;99.90;;;;;;5112893;28;20399;-63
2023/09/20 03:03:19;;;;;;;2.83;0.17;;;16.90;99.90;;;;;;5114179;28;20046;-62
2023/09/20 03:05:47;;;;;;;1.98;0.20;;;16.90;99.90;;;;;;5119063;27;20043;-63
2023/09/20 03:08:16;;;;;;;1.65;0.32;;;17.00;99.90;;;;;;5127665;27;20047;-63
2023/09/20 03:10:44;;;;;;;1.75;0.30;;;17.00;99.90;;;;;;5132687;27;20047;-62
2023/09/20 03:13:19;;;;;;;0.52;0.13;;;17.00;99.90;;;;;;5120990;27;20411;-62
2023/09/20 03:15:54;;;;;;;0.28;0.10;;;16.90;99.90;;;;;;5097311;28;20043;-62
2023/09/20 03:18:24;;;;;;;0.30;0.20;;;16.90;99.90;;;;;;5112246;28;20485;-60
2023/09/20 03:21:05;;;;;;;2.13;0.32;;;16.80;99.90;;;;;;5112160;28;20391;-59
2023/09/20 03:23:33;;;;;;;0.98;0.40;;;16.70;99.90;;;;;;5112487;28;20040;-59
2023/09/20 03:26:06;;;;;;;1.40;0.43;;;16.70;99.90;;;;;;5112607;28;20046;-59
2023/09/20 03:28:35;;;;;;;1.88;0.50;;;16.60;99.90;;;;;;5112316;28;20043;-58
2023/09/20 03:31:10;;;;;;;2.40;0.95;;;16.60;99.90;;;;;;5095135;28;20051;-58
2023/09/20 03:33:38;;;;;;;3.90;1.20;;;16.60;99.90;;;;;;5112401;28;20051;-59
2023/09/20 03:36:15;;;;;;;5.63;0.75;;;16.50;99.90;;;;;;5118660;27;20514;-59
2023/09/20 03:38:46;;;;;;;2.58;0.88;;;16.40;99.90;;;;;;5094866;28;20028;-58
2023/09/20 03:41:14;;;;;;;3.42;0.70;;;16.40;99.90;;;;;;5112224;28;20050;-58
2023/09/20 03:43:44;;;;;;;4.60;1.15;;;16.40;99.90;;;;;;5091469;28;20044;-59
2023/09/20 03:46:13;;;;;;;3.40;0.70;;;16.30;99.90;;;;;;5091841;28;20384;-59
2023/09/20 03:48:41;;;;;;;2.35;0.80;;;16.40;99.90;;;;;;5092845;28;20047;-59
2023/09/20 03:51:15;;;;;;;2.83;0.80;;;16.30;99.90;;;;;;5094606;28;20483;-59
2023/09/20 03:53:44;;;;;;;4.50;0.90;;;16.30;99.90;;;;;;5111874;28;20039;-59
2023/09/20 03:56:15;;;;;;;2.92;0.70;;;16.30;99.90;;;;;;5112042;28;20048;-58
2023/09/20 03:58:42;;;;;;;4.50;0.80;;;16.30;99.90;;;;;;5111809;28;20032;-58
2023/09/20 04:01:11;;;;;;;3.67;0.77;;;16.30;99.90;;;;;;5112931;28;20059;-58
2023/09/20 04:03:40;;;;;;;2.25;1.23;;;16.30;99.90;;;;;;5111895;28;20043;-59
2023/09/20 04:06:08;;;;;;;3.67;0.95;;;16.30;99.90;;;;;;5123771;27;20046;-59
2023/09/20 04:08:36;;;;;;;5.40;1.20;;;16.30;99.90;;;;;;5112517;27;20039;-58
2023/09/20 04:11:05;;;;;;;4.15;1.20;;;16.30;99.90;;;;;;5107556;28;20043;-59
2023/09/20 04:13:33;;;;;;;7.60;1.10;;;16.30;99.90;;;;;;5110834;28;20058;-61
2023/09/20 04:16:06;;;;;;;4.38;2.03;;;16.30;99.90;;;;;;5111446;28;20047;-60
2023/09/20 04:18:34;;;;;;;5.43;1.20;;;16.30;99.90;;;;;;5094295;28;20048;-61
2023/09/20 04:21:01;;;;;;;4.68;1.33;;;16.30;99.90;;;;;;5111274;28;20109;-60
2023/09/20 04:23:32;;;;;;;3.33;1.15;;;16.40;99.90;;;;;;5111261;28;20505;-62
2023/09/20 04:25:59;;;;;;;1.45;1.02;;;16.30;99.90;;;;;;5111468;28;20376;-62
2023/09/20 04:28:27;;;;;;;3.95;1.50;;;16.30;99.90;;;;;;5111175;28;20055;-62
2023/09/20 04:30:55;;;;;;;4.78;1.50;;;16.30;99.90;;;;;;5111662;28;20036;-62
2023/09/20 04:33:23;;;;;;;5.05;1.60;;;16.30;99.90;;;;;;5111342;28;20054;-62
2023/09/20 04:35:52;;;;;;;6.18;1.67;;;16.40;99.90;;;;;;5103725;27;20059;-62
2023/09/20 04:38:24;;;;;;;4.90;1.10;;;16.30;99.90;;;;;;5128547;27;20047;-63
2023/09/20 04:40:52;;;;;;;5.03;1.30;;;16.40;99.90;;;;;;5122247;27;20051;-62
2023/09/20 04:43:23;;;;;;;4.13;1.17;;;16.30;99.90;;;;;;5111124;28;20043;-62
2023/09/20 04:45:51;;;;;;;7.05;1.65;;;16.30;99.90;;;;;;5110826;28;20038;-62
2023/09/20 04:48:19;;;;;;;4.93;1.00;;;16.30;99.90;;;;;;5100781;27;20044;-61
2023/09/20 04:50:51;;;;;;;4.95;1.45;;;16.30;99.90;;;;;;5095403;28;20044;-61
2023/09/20 04:53:19;;;;;;;10.77;1.50;;;16.30;99.90;;;;;;5107572;28;20208;-58
2023/09/20 04:55:47;;;;;;;4.53;1.83;;;16.30;99.90;;;;;;5107456;28;20055;-58
2023/09/20 04:58:17;;;;;;;6.28;1.50;;;16.40;99.90;;;;;;5107080;28;20040;-58
2023/09/20 05:00:45;;;;;;;5.70;1.83;;;16.30;99.90;;;;;;5108333;28;20043;-59
2023/09/20 05:03:15;;;;;;;5.30;1.85;;;16.40;99.90;;;;;;5097428;27;20052;-62
2023/09/20 05:05:45;;;;;;;5.63;1.70;;;16.30;99.90;;;;;;5101260;27;20390;-59
2023/09/20 05:08:16;;;;;;;6.20;1.50;;;16.30;99.90;;;;;;5105027;27;20038;-59
2023/09/20 05:10:45;;;;;;;5.00;2.10;;;16.30;99.90;;;;;;5114183;27;20520;-59
2023/09/20 05:13:13;;;;;;;4.47;2.03;;;16.40;99.90;;;;;;5080308;28;20484;-63
2023/09/20 05:15:41;;;;;;;7.22;2.10;;;16.40;99.90;;;;;;5084678;28;20036;-62
2023/09/20 05:18:09;;;;;;;7.72;2.10;;;16.30;99.90;;;;;;5100189;27;20413;-62
2023/09/20 05:20:37;;;;;;;8.48;2.60;;;16.30;99.90;;;;;;5124099;28;20039;-62
2023/09/20 05:23:06;;;;;;;6.28;2.03;;;16.30;99.90;;;;;;5111950;28;20526;-61
2023/09/20 05:25:34;;;;;;;6.95;2.88;;;16.30;99.90;;;;;;5082048;28;20043;-63
2023/09/20 05:28:02;;;;;;;10.02;2.60;;;16.30;99.90;;;;;;5093253;28;20040;-63
2023/09/20 05:30:31;;;;;;;9.07;2.67;;;16.30;99.90;;;;;;5103605;28;20064;-62
2023/09/20 05:32:59;;;;;;;10.02;3.40;;;16.20;99.90;;;;;;5105109;28;20043;-61
2023/09/20 05:35:27;;;;;;;9.18;2.97;;;16.20;99.90;;;;;;5107620;28;20047;-59
2023/09/20 05:37:59;;;;;;;11.48;3.53;;;16.20;99.90;;;;;;5114384;28;20671;-60
2023/09/20 05:40:28;;;;;;;13.00;3.50;;;16.10;99.90;;;;;;5122744;27;20062;-60
2023/09/20 05:42:55;;;;;;;11.93;3.28;;;16.10;99.90;;;;;;5101103;28;20040;-59
2023/09/20 05:45:23;;;;;;;13.43;3.95;;;16.00;99.90;;;;;;5112198;28;20043;-59
2023/09/20 05:47:51;;;;;;;15.75;4.22;;;15.90;99.90;;;;;;5117537;27;20035;-59
2023/09/20 05:50:33;;;;;;;11.85;4.28;;;15.90;99.90;;;;;;5131019;27;20058;-58
2023/09/20 05:53:06;;;;;;;12.13;4.30;;;15.80;99.90;;;;;;5118092;27;20402;-58
2023/09/20 05:55:43;;;;;;;14.80;5.25;;;15.70;99.90;;;;;;5104517;28;20050;-58
2023/09/20 05:58:12;;;;;;;16.27;5.28;;;15.70;99.90;;;;;;5096651;28;20051;-57
2023/09/20 06:00:39;;;;;;;10.10;4.50;;;15.70;99.90;;;;;;5110141;28;20044;-58
2023/09/20 06:03:07;;;;;;;16.08;5.03;;;15.60;99.90;;;;;;5110146;28;20043;-58
2023/09/20 06:05:37;;;;;;;16.40;4.82;;;15.70;99.90;;;;;;5113053;27;20054;-58
2023/09/20 06:08:08;;;;;;;21.35;5.68;;;15.60;99.90;;;;;;5118984;27;20493;-58
2023/09/20 06:10:37;;;;;;;15.30;5.00;;;15.60;99.90;;;;;;5126807;27;20047;-59
2023/09/20 06:13:06;;;;;;;15.57;5.25;;;15.60;99.90;;;;;;5098880;28;20048;-58
2023/09/20 06:15:36;;;;;;;15.02;4.85;;;15.60;99.90;;;;;;5105895;27;20055;-58
2023/09/20 06:18:05;;;;;;;20.80;6.20;;;15.60;99.90;;;;;;5107263;27;20039;-58
2023/09/20 06:20:34;;;;;;;23.30;6.27;;;15.50;99.90;;;;;;5093217;27;20685;-58
2023/09/20 06:23:02;;;;;;;22.25;6.43;;;15.50;99.90;;;;;;5101927;27;20051;-58
2023/09/20 06:25:31;;;;;;;13.50;4.70;;;15.50;99.90;;;;;;5093267;27;20047;-58
2023/09/20 06:27:59;;;;;;;15.10;5.33;;;15.50;99.90;;;;;;5111541;27;20054;-57
2023/09/20 06:30:27;;;;;;;11.23;4.50;;;15.50;99.90;;;;;;5132129;27;20642;-57
2023/09/20 06:32:55;;;;;;;17.02;4.80;;;15.50;99.90;;;;;;5122616;27;20050;-57
2023/09/20 06:35:23;;;;;;;14.48;4.32;;;15.50;99.90;;;;;;5112116;27;20470;-56
2023/09/20 06:37:51;;;;;;;14.45;4.68;;;15.50;99.90;;;;;;5110824;28;20051;-56
2023/09/20 06:40:33;;;;;;;11.93;3.35;;;15.50;99.90;;;;;;5110999;28;20055;-55
2023/09/20 06:43:01;;;;;;;12.18;3.95;;;15.50;99.90;;;;;;5099841;28;20055;-55
2023/09/20 06:45:29;;;;;;;14.32;4.22;;;15.40;99.90;;;;;;5090623;28;20407;-56
2023/09/20 06:47:58;;;;;;;11.98;4.15;;;15.40;99.90;;;;;;5094795;27;20043;-56
2023/09/20 06:50:26;;;;;;;8.73;4.03;;;15.40;99.90;;;;;;5104642;28;20054;-56
2023/09/20 06:52:54;;;;;;;11.02;4.35;;;15.50;99.90;;;;;;5101269;27;20044;-56
2023/09/20 06:55:21;;;;;;;15.15;4.97;;;15.40;99.90;;;;;;5102143;27;20047;-55
2023/09/20 06:57:49;;;;;;;12.15;4.25;;;15.40;99.90;;;;;;5092208;28;20050;-55
2023/09/20 07:00:26;;;;;;;13.02;4.32;;;15.40;99.90;;;;;;5107379;28;20059;-55
2023/09/20 07:02:56;;;;;;;9.77;4.90;;;15.40;99.90;;;;;;5114428;27;20035;-55
2023/09/20 07:05:28;;;;;;;;;;;15.40;99.90;;;;;;5123542;27;20050;-55
2023/09/20 07:08:00;;;;;;;10.68;4.45;;;15.40;99.90;;;;;;5111973;27;19920;-55
2023/09/20 07:10:29;;;;;;;11.77;4.80;;;15.40;99.90;;;;;;5127894;27;20047;-55
2023/09/20 07:12:57;;;;;;;17.10;5.18;;;15.50;99.90;;;;;;5118193;27;20043;-55
2023/09/20 07:15:27;;;;;;;13.10;5.03;;;15.50;99.90;;;;;;5127876;27;20043;-55
2023/09/20 07:18:11;;;;;;;13.73;5.88;;;15.40;99.90;;;;;;5119994;27;20066;-54
2023/09/20 07:20:41;;;;;;;15.32;5.30;;;15.40;99.90;;;;;;5106875;28;20479;-55
2023/09/20 07:23:10;;;;;;;;;;;15.40;99.90;;;;;;5118545;27;20043;-55
2023/09/20 07:25:39;;;;;;;16.13;4.55;;;15.40;99.90;;;;;;5128000;27;19934;-54
2023/09/20 07:28:07;;;;;;;13.85;5.00;;;15.40;99.90;;;;;;5119506;27;20039;-55
2023/09/20 07:30:40;;;;;;;16.60;6.43;;;15.40;99.90;;;;;;5093585;27;20510;-54
2023/09/20 07:33:12;;;;;;;14.60;5.13;;;15.40;99.90;;;;;;5101598;28;20047;-54
2023/09/20 07:35:48;;;;;;;14.98;5.70;;;15.40;99.90;;;;;;5106924;28;20039;-54
2023/09/20 07:38:20;;;;;;;13.98;5.70;;;15.50;99.90;;;;;;5116706;27;20494;-54
2023/09/20 07:40:50;;;;;;;15.93;4.85;;;15.40;99.90;;;;;;5129464;27;20046;-54
2023/09/20 07:43:18;;;;;;;21.17;5.82;;;15.40;99.90;;;;;;5116945;27;20487;-55
2023/09/20 07:46:05;;;;;;;16.48;5.05;;;15.40;99.90;;;;;;5105029;27;20339;-54
2023/09/20 07:48:37;;;;;;;14.93;4.03;;;15.40;99.90;;;;;;5107915;28;20054;-54
2023/09/20 07:51:10;;;;;;;10.63;4.50;;;15.40;99.90;;;;;;5109753;28;20581;-54
2023/09/20 07:53:41;;;;;;;13.13;4.35;;;15.40;99.90;;;;;;5109198;28;20046;-54
2023/09/20 07:56:11;;;;;;;11.52;4.60;;;15.30;99.90;;;;;;5109839;28;20044;-54
2023/09/20 07:58:44;;;;;;;10.88;4.47;;;15.30;99.90;;;;;;5109672;28;20616;-55
2023/09/20 08:01:21;;;;;;;14.07;4.88;;;15.30;99.90;;;;;;5090461;28;20620;-54
2023/09/20 08:03:51;;;;;;;13.85;4.35;;;15.30;99.90;;;;;;5110027;27;20043;-54
2023/09/20 08:06:23;;;;;;;10.88;4.53;;;15.30;99.90;;;;;;5123327;27;20051;-54
2023/09/20 08:08:51;;;;;;;10.55;4.43;;;15.40;99.90;;;;;;5122999;27;20044;-54
2023/09/20 08:11:19;;;;;;;11.25;4.15;;;15.40;99.90;;;;;;5121509;27;20431;-54
2023/09/20 08:13:50;;;;;;;12.65;4.15;;;15.40;99.90;;;;;;5110224;27;20040;-54
2023/09/20 08:16:19;;;;;;;10.30;4.50;;;15.40;99.90;;;;;;5089512;27;20059;-55
2023/09/20 08:19:16;;;;;;;10.20;4.28;;;15.40;99.90;;;;;;5121011;27;20507;-55
2023/09/20 08:21:45;;;;;;;13.00;3.80;;;15.50;99.90;;;;;;5102658;27;20411;-55
2023/09/20 09:00:39;;;;;;;15.10;5.35;;;15.60;99.90;;;;;;5087469;27;20044;-57
2023/09/20 09:03:07;;;;;;;16.10;4.75;;;15.60;99.90;;;;;;5096304;27;20492;-57
2023/09/20 09:05:34;;;;;;;15.30;4.53;;;15.60;99.90;;;;;;5089780;27;20043;-56
2023/09/20 09:08:03;;;;;;;11.48;4.45;;;15.70;99.90;;;;;;5105482;28;20050;-56
2023/09/20 09:10:32;;;;;;;11.50;3.83;;;15.70;99.90;;;;;;5115822;27;20050;-56
2023/09/20 09:12:59;;;;;;;13.60;4.40;;;15.70;99.90;;;;;;5103829;28;20121;-55
2023/09/20 09:15:28;;;;;;;12.93;4.30;;;15.70;99.90;;;;;;5096701;28;20044;-55
2023/09/20 09:17:56;;;;;;;15.75;4.28;;;15.70;99.90;;;;;;5105248;28;20051;-57
2023/09/20 09:20:26;;;;;;;13.68;3.75;;;15.70;99.90;;;;;;5106870;28;20608;-56
2023/09/20 09:22:54;;;;;;;8.80;3.80;;;15.70;99.90;;;;;;5104404;28;20058;-55
2023/09/20 09:25:30;;;;;;;9.30;3.83;;;15.70;99.90;;;;;;5103401;28;20051;-56
2023/09/20 09:28:00;;;;;;;9.13;4.30;;;15.80;99.90;;;;;;5093181;28;20494;-56
2023/09/20 09:30:31;;;;;;;8.30;3.78;;;15.80;99.90;;;;;;5088027;28;20132;-57
2023/09/20 09:32:59;;;;;;;8.73;3.00;;;15.80;99.90;;;;;;5106988;28;20059;-57
2023/09/20 09:35:28;;;;;;;11.75;3.47;;;15.90;99.90;;;;;;5124970;28;20047;-55
2023/09/20 09:38:23;;;;;;;10.02;3.85;;;16.00;99.90;;;;;;5103102;28;20521;-57
2023/09/20 09:40:56;;;;;;;10.48;3.63;;;16.10;99.90;;;;;;5098926;28;20044;-57
2023/09/20 09:43:28;;;;;;;8.90;3.72;;;16.10;99.90;;;;;;5101335;28;20043;-61
2023/09/20 09:46:08;;;;;;;8.48;3.30;;;16.20;99.90;;;;;;5089052;28;20283;-55
2023/09/20 09:48:37;;;;;;;9.02;3.10;;;16.20;99.90;;;;;;5111043;28;20058;-55
2023/09/20 09:51:06;;;;;;;9.63;3.15;;;16.30;99.90;;;;;;5090080;28;20036;-56
2023/09/20 09:53:36;;;;;;;9.93;3.05;;;16.30;99.90;;;;;;5102714;28;20055;-56
2023/09/20 09:56:04;;;;;;;8.90;2.65;;;16.30;99.90;;;;;;5096502;28;20047;-55
2023/09/20 09:58:33;;;;;;;10.45;3.13;;;16.40;99.90;;;;;;5087703;28;20044;-55
2023/09/20 10:01:04;;;;;;;8.70;4.13;;;16.40;99.90;;;;;;5087943;28;20044;-55
2023/09/20 10:03:37;;;;;;;7.80;2.97;;;16.50;99.90;;;;;;5104937;28;20056;-55
2023/09/20 10:06:12;;;;;;;6.32;3.08;;;16.50;99.90;;;;;;5124247;28;20039;-55
2023/09/20 10:08:42;;;;;;;11.25;3.45;;;16.50;99.90;;;;;;5109251;28;20058;-55
2023/09/20 10:11:10;;;;;;;13.98;3.53;;;16.60;99.90;;;;;;5096122;28;20044;-55
2023/09/20 10:13:40;;;;;;;6.40;3.15;;;16.60;99.90;;;;;;5101234;28;20040;-55
2023/09/20 10:16:12;;;;;;;9.55;2.53;;;16.70;99.90;;;;;;5104879;28;20402;-55
2023/09/20 10:18:53;;;;;;;5.80;2.63;;;16.70;99.90;;;;;;5119330;28;20433;-55
2023/09/20 10:21:30;;;;;;;6.82;2.35;;;16.70;99.90;;;;;;5104353;28;20040;-55
2023/09/20 10:24:02;;;;;;;5.28;1.83;;;16.70;99.90;;;;;;5120782;28;20046;-55
2023/09/20 10:26:35;;;;;;;7.03;1.85;;;16.70;99.90;;;;;;5128274;28;20273;-55
2023/09/20 10:29:25;;;;;;;4.93;1.90;;;16.70;99.90;;;;;;5112204;27;20040;-55
2023/09/20 10:31:55;;;;;;;4.38;1.80;;;16.70;99.90;;;;;;5101457;28;20059;-55
2023/09/20 10:34:23;;;;;;;2.50;1.60;;;16.80;99.90;;;;;;5114729;27;20051;-55
2023/09/20 10:36:53;;;;;;;5.38;1.58;;;16.80;99.90;;;;;;5090619;28;20040;-56
2023/09/20 10:39:22;;;;;;;4.47;1.73;;;16.80;99.90;;;;;;5105087;27;20052;-55
2023/09/20 10:41:52;;;;;;;2.45;1.02;;;16.80;99.90;;;;;;5111234;28;20042;-55
2023/09/20 10:44:32;;;;;;;4.35;1.42;;;16.80;99.90;;;;;;5129138;27;20047;-55
2023/09/20 10:47:06;;;;;;;4.43;1.38;;;16.80;99.90;;;;;;5100247;27;20044;-55
2023/09/20 10:49:41;;;;;;;5.63;1.83;;;16.80;99.90;;;;;;5102184;28;20040;-55
2023/09/20 10:52:09;;;;;;;4.72;1.50;;;16.80;99.90;;;;;;5100115;27;20555;-55
2023/09/20 10:54:39;;;;;;;3.50;1.30;;;16.80;99.90;;;;;;5090136;28;20055;-55
2023/09/20 10:57:10;;;;;;;4.25;1.48;;;16.90;99.90;;;;;;5089471;28;20617;-55
2023/09/20 10:59:41;;;;;;;3.88;1.35;;;16.90;99.90;;;;;;5118514;27;20058;-55
2023/09/20 11:02:12;;;;;;;6.88;1.83;;;17.00;99.90;;;;;;5091488;27;20419;-56
2023/09/20 11:04:41;;;;;;;7.93;1.52;;;17.00;99.90;;;;;;5104850;27;20064;-56
2023/09/20 11:07:09;;;;;;;2.95;0.47;;;16.90;99.90;;;;;;5090306;28;20044;-56
2023/09/20 11:09:40;;;;;;;1.50;0.30;;;16.70;99.90;;;;;;5106505;27;20052;-55
2023/09/20 11:12:08;;;;;;;1.30;0.10;;;16.50;99.90;;;;;;5093394;27;20039;-55
2023/09/20 11:14:39;;;;;;;2.00;0.55;;;16.30;99.90;;;;;;5131386;27;20051;-54
2023/09/20 11:17:13;;;;;;;0.63;0.20;;;16.10;99.90;;;;;;5128612;27;20046;-55
2023/09/20 11:19:42;;;;;;;1.95;0.43;;;15.90;99.90;;;;;;5096946;27;20039;-55
2023/09/20 11:22:09;;;;;;;3.72;0.45;;;15.80;99.90;;;;;;5094034;27;20388;-56
2023/09/20 11:24:41;;;;;;;2.17;0.50;;;15.80;99.90;;;;;;5130898;27;20055;-56
2023/09/20 11:27:10;;;;;;;4.80;0.63;;;15.50;99.90;;;;;;5096411;28;20039;-56
2023/09/20 11:29:41;;;;;;;6.77;1.63;;;15.40;99.90;;;;;;5100518;28;20055;-56
2023/09/20 11:32:12;;;;;;;3.15;0.82;;;15.30;99.90;;;;;;5092141;27;20044;-57
2023/09/20 11:34:49;;;;;;;4.25;0.60;;;15.20;99.90;;;;;;5101969;27;20040;-56
2023/09/20 11:37:20;;;;;;;3.47;0.73;;;15.20;99.90;;;;;;5104852;27;20047;-55
2023/09/20 11:39:50;;;;;;;2.50;0.40;;;15.20;99.90;;;;;;5100519;27;20051;-57
2023/09/20 11:42:35;;;;;;;5.60;0.80;;;15.10;99.90;;;;;;5108931;27;20043;-56
2023/09/20 11:45:10;;;;;;;2.97;0.73;;;15.10;99.90;;;;;;5123451;27;20499;-55
2023/09/20 11:47:45;;;;;;;4.28;1.02;;;15.10;99.90;;;;;;5104633;27;20040;-56
2023/09/20 11:50:14;;;;;;;7.00;0.93;;;15.10;99.90;;;;;;5098777;28;20043;-57
2023/09/20 11:52:53;;;;;;;4.18;0.60;;;15.10;99.90;;;;;;5095757;28;20051;-58
2023/09/20 11:55:22;;;;;;;7.13;0.93;;;15.10;99.90;;;;;;5090150;27;20048;-57
2023/09/20 11:57:52;;;;;;;11.18;0.70;;;15.10;99.90;;;;;;5099566;27;20300;-57
2023/09/20 12:00:25;;;;;;;6.75;1.10;;;15.20;99.90;;;;;;5090547;28;20411;-56
2023/09/20 12:02:55;;;;;;;6.68;0.80;;;15.20;99.90;;;;;;5104289;28;20043;-56
2023/09/20 12:05:23;;;;;;;8.13;1.35;;;15.30;99.90;;;;;;5095938;27;20047;-57
2023/09/20 12:07:59;;;;;;;7.20;1.05;;;15.30;99.90;;;;;;5102300;28;20040;-57
2023/09/20 12:10:28;;;;;;;9.32;1.20;;;15.30;99.90;;;;;;5105832;27;20399;-57
2023/09/20 12:12:57;;;;;;;3.65;0.82;;;15.30;99.90;;;;;;5096744;28;20040;-57
2023/09/20 12:15:25;;;;;;;8.75;0.88;;;15.30;99.90;;;;;;5093194;28;20506;-56
2023/09/20 12:17:55;;;;;;;5.60;0.98;;;15.30;99.90;;;;;;5095340;28;20039;-56
2023/09/20 12:20:25;;;;;;;5.32;1.35;;;15.40;99.90;;;;;;5097434;28;20392;-56
2023/09/20 12:22:53;;;;;;;8.38;1.27;;;15.30;99.90;;;;;;5099962;27;20472;-57
2023/09/20 12:25:21;;;;;;;4.45;0.75;;;15.40;99.90;;;;;;5098545;27;20628;-55
2023/09/20 12:27:48;;;;;;;6.90;1.02;;;15.40;99.90;;;;;;5089280;28;20047;-55
2023/09/20 12:30:17;;;;;;;3.80;0.63;;;15.30;99.90;;;;;;5092429;27;20486;-56
2023/09/20 12:32:46;;;;;;;6.20;0.52;;;15.40;99.90;;;;;;5093482;27;20047;-56
2023/09/20 12:35:14;;;;;;;4.72;0.70;;;15.40;99.90;;;;;;5097734;27;20554;-55
2023/09/20 12:37:42;;;;;;;5.25;0.70;;;15.40;99.90;;;;;;5091277;28;20054;-55
2023/09/20 12:40:11;;;;;;;4.78;0.80;;;15.50;99.90;;;;;;5101917;27;20051;-56
2023/09/20 12:42:39;;;;;;;8.55;1.10;;;15.50;99.90;;;;;;5090226;28;20044;-55
2023/09/20 12:45:08;;;;;;;5.32;0.57;;;15.50;99.90;;;;;;5095102;27;20043;-56
2023/09/20 12:47:41;;;;;;;2.83;0.60;;;15.50;99.90;;;;;;5092103;27;20048;-56
2023/09/20 12:50:12;;;;;;;5.28;1.27;;;15.50;99.90;;;;;;5093679;27;20500;-55
2023/09/20 12:52:43;;;;;;;2.53;0.50;;;15.50;99.90;;;;;;5101169;27;20039;-56
2023/09/20 12:55:12;;;;;;;4.07;0.85;;;15.50;99.90;;;;;;5091454;27;20051;-56
2023/09/20 12:57:41;;;;;;;3.30;0.80;;;15.60;99.90;;;;;;5089771;28;20044;-56
2023/09/20 13:00:16;;;;;;;2.78;0.63;;;15.60;99.90;;;;;;5097145;27;20044;-56
2023/09/20 13:02:57;;;;;;;3.25;0.50;;;15.70;99.90;;;;;;5103145;28;20393;-56
2023/09/20 13:05:27;;;;;;;5.22;0.98;;;15.50;99.90;;;;;;5121536;27;20502;-55
2023/09/20 13:07:56;;;;;;;4.18;0.90;;;15.60;99.90;;;;;;5108124;28;20042;-55
2023/09/20 13:10:24;;;;;;;3.65;0.68;;;15.60;99.90;;;;;;5102865;27;20044;-55
2023/09/20 13:12:53;;;;;;;5.47;0.75;;;15.60;99.90;;;;;;5094726;28;20044;-55
2023/09/20 13:15:21;;;;;;;6.30;1.20;;;15.60;99.90;;;;;;5098063;28;20040;-55
2023/09/20 13:17:50;;;;;;;6.47;0.70;;;15.70;99.90;;;;;;5094314;28;20043;-55
2023/09/20 13:20:18;;;;;;;;;;;15.80;99.90;;;;;;5088597;28;20071;-55
2023/09/20 13:22:47;;;;;;;9.57;0.80;;;15.90;99.90;;;;;;5095482;28;19927;-57
2023/09/20 13:25:19;;;;;;;7.32;0.77;;;16.00;99.90;;;;;;5105416;28;20069;-56
2023/09/20 13:27:50;;;;;;;7.85;0.98;;;16.10;99.90;;;;;;5090090;28;20055;-59
2023/09/20 13:30:17;;;;;;;4.15;0.75;;;16.30;99.90;;;;;;5100417;28;20063;-56
2023/09/20 13:32:48;;;;;;;4.50;0.95;;;16.30;99.90;;;;;;5106523;28;20058;-56
2023/09/20 13:35:16;;;;;;;3.38;0.80;;;16.40;99.90;;;;;;5110019;28;20039;-56
2023/09/20 13:37:45;;;;;;;8.38;1.13;;;16.50;99.90;;;;;;5098867;28;20043;-56
2023/09/20 13:40:18;;;;;;;4.60;1.25;;;16.50;99.90;;;;;;5097644;28;20618;-56
2023/09/20 13:42:46;;;;;;;7.55;1.02;;;16.50;99.90;;;;;;5107941;28;20047;-55
2023/09/20 13:45:16;;;;;;;5.78;0.65;;;16.50;99.90;;;;;;5098013;28;20039;-57
2023/09/20 13:47:47;;;;;;;7.30;1.50;;;16.50;99.90;;;;;;5093821;28;20047;-56
2023/09/20 13:50:15;;;;;;;4.93;0.95;;;16.50;99.90;;;;;;5092216;28;20055;-58
2023/09/20 13:52:43;;;;;;;4.47;0.98;;;16.60;99.90;;;;;;5101282;28;20048;-56